sensor_id;sensor_type;location;lat;lon;timestamp;P1;durP1;ratioP1;P2;durP2;ratioP2
69057;SDS011;56128;37.534;-122.308;2022-12-07T00:00:31;3.08;;;1.50;;
69057;SDS011;56128;37.534;-122.308;2022-12-07T00:02:56;3.35;;;1.42;;
69057;SDS011;56128;37.534;-122.308;2022-12-07T00:05:22;2.95;;;1.40;;
69057;SDS011;56128;37.534;-122.308;2022-12-07T00:07:48;5.53;;;1.27;;
69057;SDS011;56128;37.534;-122.308;2022-12-07T00:10:14;2.58;;;1.40;;
69057;SDS011;56128;37.534;-122.308;2022-12-07T00:12:40;2.42;;;1.25;;
69057;SDS011;56128;37.534;-122.308;2022-12-07T00:15:06;3.70;;;1.30;;
69057;SDS011;56128;37.534;-122.308;2022-12-07T00:17:32;4.57;;;1.60;;
69057;SDS011;56128;37.534;-122.308;2022-12-07T00:19:58;2.90;;;1.50;;
69057;SDS011;56128;37.534;-122.308;2022-12-07T00:22:24;5.40;;;1.80;;
69057;SDS011;56128;37.534;-122.308;2022-12-07T00:24:50;3.33;;;1.92;;
69057;SDS011;56128;37.534;-122.308;2022-12-07T00:27:16;4.03;;;1.67;;
69057;SDS011;56128;37.534;-122.308;2022-12-07T00:29:41;4.22;;;1.77;;
69057;SDS011;56128;37.534;-122.308;2022-12-07T00:32:07;4.78;;;1.83;;
69057;SDS011;56128;37.534;-122.308;2022-12-07T00:34:33;3.30;;;1.80;;
69057;SDS011;56128;37.534;-122.308;2022-12-07T00:36:59;3.05;;;1.70;;
69057;SDS011;56128;37.534;-122.308;2022-12-07T00:39:24;3.17;;;1.50;;
69057;SDS011;56128;37.534;-122.308;2022-12-07T00:41:50;3.70;;;1.40;;
69057;SDS011;56128;37.534;-122.308;2022-12-07T00:44:16;3.22;;;1.60;;
69057;SDS011;56128;37.534;-122.308;2022-12-07T00:46:42;2.63;;;1.42;;
69057;SDS011;56128;37.534;-122.308;2022-12-07T00:49:08;5.63;;;1.80;;
69057;SDS011;56128;37.534;-122.308;2022-12-07T00:51:33;4.15;;;1.83;;
69057;SDS011;56128;37.534;-122.308;2022-12-07T00:53:59;6.00;;;2.00;;
69057;SDS011;56128;37.534;-122.308;2022-12-07T00:56:26;4.70;;;1.90;;
69057;SDS011;56128;37.534;-122.308;2022-12-07T00:58:59;2.50;;;1.60;;
69057;SDS011;56128;37.534;-122.308;2022-12-07T01:01:26;4.15;;;1.67;;
69057;SDS011;56128;37.534;-122.308;2022-12-07T01:03:52;3.80;;;2.20;;
69057;SDS011;56128;37.534;-122.308;2022-12-07T01:06:19;5.25;;;2.10;;
69057;SDS011;56128;37.534;-122.308;2022-12-07T01:08:45;8.73;;;2.50;;
69057;SDS011;56128;37.534;-122.308;2022-12-07T01:11:15;4.85;;;2.70;;
69057;SDS011;56128;37.534;-122.308;2022-12-07T01:13:41;6.90;;;2.78;;
69057;SDS011;56128;37.534;-122.308;2022-12-07T01:16:07;4.00;;;2.38;;
69057;SDS011;56128;37.534;-122.308;2022-12-07T01:18:34;4.50;;;2.53;;
69057;SDS011;56128;37.534;-122.308;2022-12-07T01:21:01;5.85;;;2.45;;
69057;SDS011;56128;37.534;-122.308;2022-12-07T01:23:28;3.78;;;2.63;;
69057;SDS011;56128;37.534;-122.308;2022-12-07T01:25:54;4.95;;;2.33;;
69057;SDS011;56128;37.534;-122.308;2022-12-07T01:28:20;5.97;;;2.00;;
69057;SDS011;56128;37.534;-122.308;2022-12-07T01:30:54;2.90;;;2.05;;
69057;SDS011;56128;37.534;-122.308;2022-12-07T01:36:13;5.55;;;2.55;;
69057;SDS011;56128;37.534;-122.308;2022-12-07T01:38:39;4.10;;;2.47;;
69057;SDS011;56128;37.534;-122.308;2022-12-07T01:41:06;6.25;;;2.92;;
69057;SDS011;56128;37.534;-122.308;2022-12-07T01:43:33;6.10;;;3.00;;
69057;SDS011;56128;37.534;-122.308;2022-12-07T01:45:59;4.93;;;2.83;;
69057;SDS011;56128;37.534;-122.308;2022-12-07T01:48:46;5.93;;;2.90;;
69057;SDS011;56128;37.534;-122.308;2022-12-07T01:51:11;5.70;;;2.80;;
69057;SDS011;56128;37.534;-122.308;2022-12-07T01:53:41;9.77;;;3.25;;
69057;SDS011;56128;37.534;-122.308;2022-12-07T01:56:08;6.95;;;3.22;;
69057;SDS011;56128;37.534;-122.308;2022-12-07T01:58:36;9.05;;;3.33;;
69057;SDS011;56128;37.534;-122.308;2022-12-07T02:01:02;8.50;;;3.20;;
69057;SDS011;56128;37.534;-122.308;2022-12-07T02:03:32;7.40;;;3.70;;
69057;SDS011;56128;37.534;-122.308;2022-12-07T02:06:00;4.25;;;3.00;;
69057;SDS011;56128;37.534;-122.308;2022-12-07T02:08:25;6.72;;;4.35;;
69057;SDS011;56128;37.534;-122.308;2022-12-07T02:10:51;5.75;;;3.38;;
69057;SDS011;56128;37.534;-122.308;2022-12-07T02:13:19;5.63;;;3.83;;
69057;SDS011;56128;37.534;-122.308;2022-12-07T02:21:02;9.98;;;3.75;;
69057;SDS011;56128;37.534;-122.308;2022-12-07T02:26:17;5.50;;;3.63;;
69057;SDS011;56128;37.534;-122.308;2022-12-07T02:31:21;10.85;;;4.53;;
69057;SDS011;56128;37.534;-122.308;2022-12-07T02:33:54;8.73;;;4.60;;
69057;SDS011;56128;37.534;-122.308;2022-12-07T02:36:25;13.82;;;4.82;;
69057;SDS011;56128;37.534;-122.308;2022-12-07T02:38:58;9.82;;;4.70;;
69057;SDS011;56128;37.534;-122.308;2022-12-07T02:41:29;10.38;;;5.20;;
69057;SDS011;56128;37.534;-122.308;2022-12-07T02:43:59;8.65;;;4.95;;
69057;SDS011;56128;37.534;-122.308;2022-12-07T02:46:27;10.60;;;4.95;;
69057;SDS011;56128;37.534;-122.308;2022-12-07T02:48:54;9.18;;;5.65;;
69057;SDS011;56128;37.534;-122.308;2022-12-07T02:51:21;12.27;;;5.35;;
69057;SDS011;56128;37.534;-122.308;2022-12-07T02:53:47;8.52;;;5.35;;
69057;SDS011;56128;37.534;-122.308;2022-12-07T03:04:27;9.60;;;5.47;;
69057;SDS011;56128;37.534;-122.308;2022-12-07T03:07:08;8.93;;;5.35;;
69057;SDS011;56128;37.534;-122.308;2022-12-07T03:10:22;10.35;;;5.60;;
69057;SDS011;56128;37.534;-122.308;2022-12-07T03:12:30;8.93;;;5.60;;
69057;SDS011;56128;37.534;-122.308;2022-12-07T03:15:05;11.65;;;5.40;;
69057;SDS011;56128;37.534;-122.308;2022-12-07T03:17:32;10.70;;;5.38;;
69057;SDS011;56128;37.534;-122.308;2022-12-07T03:20:02;8.23;;;5.20;;
69057;SDS011;56128;37.534;-122.308;2022-12-07T03:22:30;9.02;;;5.72;;
69057;SDS011;56128;37.534;-122.308;2022-12-07T03:24:58;10.70;;;5.60;;
69057;SDS011;56128;37.534;-122.308;2022-12-07T03:27:28;10.82;;;5.35;;
69057;SDS011;56128;37.534;-122.308;2022-12-07T03:30:00;10.65;;;5.35;;
69057;SDS011;56128;37.534;-122.308;2022-12-07T03:32:34;9.68;;;5.32;;
69057;SDS011;56128;37.534;-122.308;2022-12-07T03:38:06;9.93;;;5.18;;
69057;SDS011;56128;37.534;-122.308;2022-12-07T03:40:39;8.88;;;5.28;;
69057;SDS011;56128;37.534;-122.308;2022-12-07T03:43:06;10.95;;;5.97;;
69057;SDS011;56128;37.534;-122.308;2022-12-07T03:48:25;9.68;;;5.47;;
69057;SDS011;56128;37.534;-122.308;2022-12-07T03:51:06;11.48;;;5.32;;
69057;SDS011;56128;37.534;-122.308;2022-12-07T03:56:34;10.68;;;5.30;;
69057;SDS011;56128;37.534;-122.308;2022-12-07T03:59:00;11.55;;;5.95;;
69057;SDS011;56128;37.534;-122.308;2022-12-07T04:01:26;13.48;;;5.93;;
69057;SDS011;56128;37.534;-122.308;2022-12-07T04:03:52;13.63;;;6.30;;
69057;SDS011;56128;37.534;-122.308;2022-12-07T04:06:18;9.70;;;5.78;;
69057;SDS011;56128;37.534;-122.308;2022-12-07T04:08:44;10.95;;;6.75;;
69057;SDS011;56128;37.534;-122.308;2022-12-07T04:11:10;12.57;;;6.03;;
69057;SDS011;56128;37.534;-122.308;2022-12-07T04:13:36;12.23;;;6.00;;
69057;SDS011;56128;37.534;-122.308;2022-12-07T04:16:22;11.52;;;5.60;;
69057;SDS011;56128;37.534;-122.308;2022-12-07T04:18:47;10.52;;;5.75;;
69057;SDS011;56128;37.534;-122.308;2022-12-07T04:21:13;11.43;;;6.45;;
69057;SDS011;56128;37.534;-122.308;2022-12-07T04:23:39;9.02;;;5.72;;
69057;SDS011;56128;37.534;-122.308;2022-12-07T04:26:05;9.70;;;5.93;;
69057;SDS011;56128;37.534;-122.308;2022-12-07T04:28:30;9.73;;;6.25;;
69057;SDS011;56128;37.534;-122.308;2022-12-07T04:30:56;13.23;;;6.15;;
69057;SDS011;56128;37.534;-122.308;2022-12-07T04:33:22;12.10;;;6.45;;
69057;SDS011;56128;37.534;-122.308;2022-12-07T04:35:48;11.68;;;6.68;;
69057;SDS011;56128;37.534;-122.308;2022-12-07T04:38:13;12.32;;;6.55;;
69057;SDS011;56128;37.534;-122.308;2022-12-07T04:40:39;10.70;;;6.55;;
69057;SDS011;56128;37.534;-122.308;2022-12-07T04:43:05;12.82;;;6.65;;
69057;SDS011;56128;37.534;-122.308;2022-12-07T04:45:31;15.45;;;6.82;;
69057;SDS011;56128;37.534;-122.308;2022-12-07T04:47:56;14.05;;;6.35;;
69057;SDS011;56128;37.534;-122.308;2022-12-07T04:50:22;13.35;;;6.50;;
69057;SDS011;56128;37.534;-122.308;2022-12-07T04:52:48;14.20;;;6.53;;
69057;SDS011;56128;37.534;-122.308;2022-12-07T04:55:14;14.50;;;6.80;;
69057;SDS011;56128;37.534;-122.308;2022-12-07T04:57:40;13.70;;;6.63;;
69057;SDS011;56128;37.534;-122.308;2022-12-07T05:00:06;12.98;;;6.25;;
69057;SDS011;56128;37.534;-122.308;2022-12-07T05:02:31;12.50;;;6.88;;
69057;SDS011;56128;37.534;-122.308;2022-12-07T05:04:57;13.48;;;7.15;;
69057;SDS011;56128;37.534;-122.308;2022-12-07T05:07:23;14.68;;;7.38;;
69057;SDS011;56128;37.534;-122.308;2022-12-07T05:09:49;12.85;;;6.97;;
69057;SDS011;56128;37.534;-122.308;2022-12-07T05:12:14;13.07;;;7.65;;
69057;SDS011;56128;37.534;-122.308;2022-12-07T05:14:40;14.10;;;7.20;;
69057;SDS011;56128;37.534;-122.308;2022-12-07T05:17:06;13.57;;;7.25;;
69057;SDS011;56128;37.534;-122.308;2022-12-07T05:19:32;14.82;;;7.50;;
69057;SDS011;56128;37.534;-122.308;2022-12-07T05:21:58;13.05;;;6.90;;
69057;SDS011;56128;37.534;-122.308;2022-12-07T05:24:23;18.00;;;7.07;;
69057;SDS011;56128;37.534;-122.308;2022-12-07T05:26:49;11.98;;;6.30;;
69057;SDS011;56128;37.534;-122.308;2022-12-07T05:29:16;16.15;;;7.03;;
69057;SDS011;56128;37.534;-122.308;2022-12-07T05:31:42;12.68;;;7.00;;
69057;SDS011;56128;37.534;-122.308;2022-12-07T05:34:09;15.20;;;7.38;;
69057;SDS011;56128;37.534;-122.308;2022-12-07T05:36:34;12.07;;;7.10;;
69057;SDS011;56128;37.534;-122.308;2022-12-07T05:39:00;14.82;;;7.03;;
69057;SDS011;56128;37.534;-122.308;2022-12-07T05:41:26;12.15;;;6.65;;
69057;SDS011;56128;37.534;-122.308;2022-12-07T05:44:10;12.95;;;6.65;;
69057;SDS011;56128;37.534;-122.308;2022-12-07T05:46:36;14.23;;;6.95;;
69057;SDS011;56128;37.534;-122.308;2022-12-07T05:49:02;13.00;;;6.75;;
69057;SDS011;56128;37.534;-122.308;2022-12-07T05:51:28;13.10;;;6.65;;
69057;SDS011;56128;37.534;-122.308;2022-12-07T05:53:54;13.27;;;6.70;;
69057;SDS011;56128;37.534;-122.308;2022-12-07T05:56:19;18.92;;;7.32;;
69057;SDS011;56128;37.534;-122.308;2022-12-07T05:58:45;14.38;;;7.35;;
69057;SDS011;56128;37.534;-122.308;2022-12-07T06:01:30;14.02;;;6.75;;
69057;SDS011;56128;37.534;-122.308;2022-12-07T06:03:55;16.30;;;7.07;;
69057;SDS011;56128;37.534;-122.308;2022-12-07T06:06:21;16.30;;;7.00;;
69057;SDS011;56128;37.534;-122.308;2022-12-07T06:08:47;14.93;;;7.95;;
69057;SDS011;56128;37.534;-122.308;2022-12-07T06:11:13;16.58;;;7.53;;
69057;SDS011;56128;37.534;-122.308;2022-12-07T06:13:57;14.05;;;7.35;;
69057;SDS011;56128;37.534;-122.308;2022-12-07T06:16:23;16.80;;;7.28;;
69057;SDS011;56128;37.534;-122.308;2022-12-07T06:18:49;13.55;;;7.25;;
69057;SDS011;56128;37.534;-122.308;2022-12-07T06:21:14;17.35;;;7.70;;
69057;SDS011;56128;37.534;-122.308;2022-12-07T06:23:40;15.63;;;7.72;;
69057;SDS011;56128;37.534;-122.308;2022-12-07T06:26:06;16.58;;;7.93;;
69057;SDS011;56128;37.534;-122.308;2022-12-07T06:28:32;16.05;;;7.40;;
69057;SDS011;56128;37.534;-122.308;2022-12-07T06:30:59;17.75;;;7.22;;
69057;SDS011;56128;37.534;-122.308;2022-12-07T06:33:25;17.73;;;8.45;;
69057;SDS011;56128;37.534;-122.308;2022-12-07T06:35:51;17.90;;;7.60;;
69057;SDS011;56128;37.534;-122.308;2022-12-07T06:38:16;16.60;;;8.10;;
69057;SDS011;56128;37.534;-122.308;2022-12-07T06:40:42;14.60;;;7.43;;
69057;SDS011;56128;37.534;-122.308;2022-12-07T06:43:08;18.38;;;8.07;;
69057;SDS011;56128;37.534;-122.308;2022-12-07T06:45:34;14.85;;;7.25;;
69057;SDS011;56128;37.534;-122.308;2022-12-07T06:48:00;14.48;;;7.55;;
69057;SDS011;56128;37.534;-122.308;2022-12-07T06:50:26;18.05;;;8.48;;
69057;SDS011;56128;37.534;-122.308;2022-12-07T06:52:51;17.17;;;8.00;;
69057;SDS011;56128;37.534;-122.308;2022-12-07T06:55:17;19.10;;;8.00;;
69057;SDS011;56128;37.534;-122.308;2022-12-07T06:57:43;16.08;;;7.50;;
69057;SDS011;56128;37.534;-122.308;2022-12-07T07:00:09;17.88;;;8.02;;
69057;SDS011;56128;37.534;-122.308;2022-12-07T07:02:35;13.85;;;7.53;;
69057;SDS011;56128;37.534;-122.308;2022-12-07T07:05:01;16.10;;;7.53;;
69057;SDS011;56128;37.534;-122.308;2022-12-07T07:07:27;18.63;;;7.43;;
69057;SDS011;56128;37.534;-122.308;2022-12-07T07:09:53;13.82;;;7.28;;
69057;SDS011;56128;37.534;-122.308;2022-12-07T07:12:18;16.42;;;7.65;;
69057;SDS011;56128;37.534;-122.308;2022-12-07T07:14:44;19.17;;;7.65;;
69057;SDS011;56128;37.534;-122.308;2022-12-07T07:17:10;15.90;;;7.30;;
69057;SDS011;56128;37.534;-122.308;2022-12-07T07:19:36;15.98;;;7.32;;
69057;SDS011;56128;37.534;-122.308;2022-12-07T07:22:02;15.30;;;7.03;;
69057;SDS011;56128;37.534;-122.308;2022-12-07T07:24:28;16.90;;;7.03;;
69057;SDS011;56128;37.534;-122.308;2022-12-07T07:26:54;15.02;;;7.43;;
69057;SDS011;56128;37.534;-122.308;2022-12-07T07:29:20;17.77;;;6.90;;
69057;SDS011;56128;37.534;-122.308;2022-12-07T07:31:46;13.20;;;6.97;;
69057;SDS011;56128;37.534;-122.308;2022-12-07T07:34:12;15.30;;;6.65;;
69057;SDS011;56128;37.534;-122.308;2022-12-07T07:36:37;13.27;;;7.22;;
69057;SDS011;56128;37.534;-122.308;2022-12-07T07:39:03;17.73;;;7.35;;
69057;SDS011;56128;37.534;-122.308;2022-12-07T07:41:30;13.40;;;6.55;;
69057;SDS011;56128;37.534;-122.308;2022-12-07T07:43:56;15.73;;;6.60;;
69057;SDS011;56128;37.534;-122.308;2022-12-07T07:46:22;17.52;;;7.35;;
69057;SDS011;56128;37.534;-122.308;2022-12-07T07:48:48;16.05;;;7.15;;
69057;SDS011;56128;37.534;-122.308;2022-12-07T07:51:14;12.38;;;7.15;;
69057;SDS011;56128;37.534;-122.308;2022-12-07T07:53:40;14.75;;;6.63;;
69057;SDS011;56128;37.534;-122.308;2022-12-07T07:56:05;13.55;;;6.70;;
69057;SDS011;56128;37.534;-122.308;2022-12-07T07:58:31;14.02;;;6.80;;
69057;SDS011;56128;37.534;-122.308;2022-12-07T08:01:02;18.55;;;6.82;;
69057;SDS011;56128;37.534;-122.308;2022-12-07T08:03:28;14.68;;;6.28;;
69057;SDS011;56128;37.534;-122.308;2022-12-07T08:05:54;18.00;;;6.78;;
69057;SDS011;56128;37.534;-122.308;2022-12-07T08:08:20;13.85;;;6.88;;
69057;SDS011;56128;37.534;-122.308;2022-12-07T08:10:46;13.75;;;6.93;;
69057;SDS011;56128;37.534;-122.308;2022-12-07T08:13:11;13.73;;;6.40;;
69057;SDS011;56128;37.534;-122.308;2022-12-07T08:15:42;17.83;;;6.97;;
69057;SDS011;56128;37.534;-122.308;2022-12-07T08:18:08;16.20;;;7.10;;
69057;SDS011;56128;37.534;-122.308;2022-12-07T08:20:35;14.43;;;7.03;;
69057;SDS011;56128;37.534;-122.308;2022-12-07T08:23:01;15.20;;;7.00;;
69057;SDS011;56128;37.534;-122.308;2022-12-07T08:25:27;13.50;;;6.85;;
69057;SDS011;56128;37.534;-122.308;2022-12-07T08:27:53;15.80;;;6.60;;
69057;SDS011;56128;37.534;-122.308;2022-12-07T08:30:19;16.42;;;7.07;;
69057;SDS011;56128;37.534;-122.308;2022-12-07T08:32:46;18.40;;;6.57;;
69057;SDS011;56128;37.534;-122.308;2022-12-07T08:35:12;16.38;;;7.47;;
69057;SDS011;56128;37.534;-122.308;2022-12-07T08:37:38;17.88;;;7.30;;
69057;SDS011;56128;37.534;-122.308;2022-12-07T08:40:04;17.02;;;7.13;;
69057;SDS011;56128;37.534;-122.308;2022-12-07T08:42:30;17.60;;;7.78;;
69057;SDS011;56128;37.534;-122.308;2022-12-07T08:45:05;15.32;;;6.63;;
69057;SDS011;56128;37.534;-122.308;2022-12-07T08:47:31;14.82;;;6.45;;
69057;SDS011;56128;37.534;-122.308;2022-12-07T08:49:57;14.18;;;6.50;;
69057;SDS011;56128;37.534;-122.308;2022-12-07T08:52:29;14.15;;;6.30;;
69057;SDS011;56128;37.534;-122.308;2022-12-07T08:54:55;13.50;;;6.50;;
69057;SDS011;56128;37.534;-122.308;2022-12-07T08:57:21;14.55;;;6.90;;
69057;SDS011;56128;37.534;-122.308;2022-12-07T08:59:47;14.85;;;6.55;;
69057;SDS011;56128;37.534;-122.308;2022-12-07T09:02:13;14.88;;;6.50;;
69057;SDS011;56128;37.534;-122.308;2022-12-07T09:04:39;15.68;;;6.05;;
69057;SDS011;56128;37.534;-122.308;2022-12-07T09:07:04;15.52;;;6.22;;
69057;SDS011;56128;37.534;-122.308;2022-12-07T09:09:31;15.82;;;7.00;;
69057;SDS011;56128;37.534;-122.308;2022-12-07T09:11:57;14.00;;;6.60;;
69057;SDS011;56128;37.534;-122.308;2022-12-07T09:14:23;16.48;;;6.65;;
69057;SDS011;56128;37.534;-122.308;2022-12-07T09:16:49;13.25;;;6.70;;
69057;SDS011;56128;37.534;-122.308;2022-12-07T09:19:15;13.52;;;6.20;;
69057;SDS011;56128;37.534;-122.308;2022-12-07T09:21:41;17.20;;;6.15;;
69057;SDS011;56128;37.534;-122.308;2022-12-07T09:24:06;13.65;;;6.50;;
69057;SDS011;56128;37.534;-122.308;2022-12-07T09:26:33;14.70;;;6.20;;
69057;SDS011;56128;37.534;-122.308;2022-12-07T09:29:01;14.57;;;6.40;;
69057;SDS011;56128;37.534;-122.308;2022-12-07T09:31:27;15.43;;;7.05;;
69057;SDS011;56128;37.534;-122.308;2022-12-07T09:33:53;15.43;;;6.47;;
69057;SDS011;56128;37.534;-122.308;2022-12-07T09:36:20;13.57;;;6.55;;
69057;SDS011;56128;37.534;-122.308;2022-12-07T09:38:45;15.43;;;6.32;;
69057;SDS011;56128;37.534;-122.308;2022-12-07T09:41:11;14.02;;;6.20;;
69057;SDS011;56128;37.534;-122.308;2022-12-07T09:43:37;14.05;;;6.22;;
69057;SDS011;56128;37.534;-122.308;2022-12-07T09:46:04;12.00;;;6.40;;
69057;SDS011;56128;37.534;-122.308;2022-12-07T09:48:34;12.57;;;5.97;;
69057;SDS011;56128;37.534;-122.308;2022-12-07T09:51:02;12.52;;;6.38;;
69057;SDS011;56128;37.534;-122.308;2022-12-07T09:53:34;14.15;;;6.55;;
69057;SDS011;56128;37.534;-122.308;2022-12-07T09:56:03;13.52;;;6.28;;
69057;SDS011;56128;37.534;-122.308;2022-12-07T09:58:29;13.85;;;6.47;;
69057;SDS011;56128;37.534;-122.308;2022-12-07T10:00:55;18.38;;;6.40;;
69057;SDS011;56128;37.534;-122.308;2022-12-07T10:03:22;12.00;;;5.90;;
69057;SDS011;56128;37.534;-122.308;2022-12-07T10:05:49;17.55;;;6.43;;
69057;SDS011;56128;37.534;-122.308;2022-12-07T10:08:16;12.82;;;6.25;;
69057;SDS011;56128;37.534;-122.308;2022-12-07T10:10:42;12.88;;;6.00;;
69057;SDS011;56128;37.534;-122.308;2022-12-07T10:13:09;15.60;;;5.95;;
69057;SDS011;56128;37.534;-122.308;2022-12-07T10:15:43;14.07;;;6.38;;
69057;SDS011;56128;37.534;-122.308;2022-12-07T10:20:45;15.88;;;6.68;;
69057;SDS011;56128;37.534;-122.308;2022-12-07T10:23:15;15.90;;;6.68;;
69057;SDS011;56128;37.534;-122.308;2022-12-07T10:25:42;14.73;;;6.68;;
69057;SDS011;56128;37.534;-122.308;2022-12-07T10:30:46;17.25;;;7.07;;
69057;SDS011;56128;37.534;-122.308;2022-12-07T10:35:56;14.95;;;6.13;;
69057;SDS011;56128;37.534;-122.308;2022-12-07T10:41:06;15.93;;;6.70;;
69057;SDS011;56128;37.534;-122.308;2022-12-07T10:43:32;19.08;;;7.07;;
69057;SDS011;56128;37.534;-122.308;2022-12-07T10:46:21;14.18;;;6.88;;
69057;SDS011;56128;37.534;-122.308;2022-12-07T10:56:51;15.90;;;6.90;;
69057;SDS011;56128;37.534;-122.308;2022-12-07T11:04:31;18.88;;;7.80;;
69057;SDS011;56128;37.534;-122.308;2022-12-07T11:09:51;15.40;;;6.80;;
69057;SDS011;56128;37.534;-122.308;2022-12-07T11:15:12;18.65;;;6.93;;
69057;SDS011;56128;37.534;-122.308;2022-12-07T11:22:56;15.30;;;6.72;;
69057;SDS011;56128;37.534;-122.308;2022-12-07T11:30:19;14.80;;;6.57;;
69057;SDS011;56128;37.534;-122.308;2022-12-07T11:40:36;15.48;;;5.65;;
69057;SDS011;56128;37.534;-122.308;2022-12-07T11:45:52;13.55;;;5.85;;
69057;SDS011;56128;37.534;-122.308;2022-12-07T11:48:37;19.65;;;6.25;;
69057;SDS011;56128;37.534;-122.308;2022-12-07T11:51:04;19.35;;;5.85;;
69057;SDS011;56128;37.534;-122.308;2022-12-07T11:53:43;18.88;;;6.13;;
69057;SDS011;56128;37.534;-122.308;2022-12-07T11:56:14;16.95;;;5.68;;
69057;SDS011;56128;37.534;-122.308;2022-12-07T12:03:49;16.55;;;5.80;;
69057;SDS011;56128;37.534;-122.308;2022-12-07T12:06:15;15.38;;;5.70;;
69057;SDS011;56128;37.534;-122.308;2022-12-07T12:08:43;14.52;;;5.93;;
69057;SDS011;56128;37.534;-122.308;2022-12-07T12:16:35;16.25;;;5.72;;
69057;SDS011;56128;37.534;-122.308;2022-12-07T12:19:55;17.90;;;5.65;;
69057;SDS011;56128;37.534;-122.308;2022-12-07T12:21:54;15.82;;;5.80;;
69057;SDS011;56128;37.534;-122.308;2022-12-07T12:24:25;16.58;;;6.20;;
69057;SDS011;56128;37.534;-122.308;2022-12-07T12:26:53;14.30;;;5.57;;
69057;SDS011;56128;37.534;-122.308;2022-12-07T12:29:23;18.75;;;6.15;;
69057;SDS011;56128;37.534;-122.308;2022-12-07T12:45:20;16.30;;;5.93;;
69057;SDS011;56128;37.534;-122.308;2022-12-07T12:48:00;17.58;;;6.00;;
69057;SDS011;56128;37.534;-122.308;2022-12-07T12:50:27;18.17;;;5.68;;
69057;SDS011;56128;37.534;-122.308;2022-12-07T12:52:58;18.75;;;5.80;;
69057;SDS011;56128;37.534;-122.308;2022-12-07T13:00:45;17.30;;;6.28;;
69057;SDS011;56128;37.534;-122.308;2022-12-07T13:03:22;16.42;;;5.65;;
69057;SDS011;56128;37.534;-122.308;2022-12-07T13:05:49;15.93;;;5.35;;
69057;SDS011;56128;37.534;-122.308;2022-12-07T13:08:35;13.68;;;5.25;;
69057;SDS011;56128;37.534;-122.308;2022-12-07T13:11:18;15.75;;;5.55;;
69057;SDS011;56128;37.534;-122.308;2022-12-07T13:13:45;18.42;;;5.68;;
69057;SDS011;56128;37.534;-122.308;2022-12-07T13:18:38;18.52;;;6.18;;
69057;SDS011;56128;37.534;-122.308;2022-12-07T13:23:35;15.77;;;6.05;;
69057;SDS011;56128;37.534;-122.308;2022-12-07T13:26:18;17.67;;;5.93;;
69057;SDS011;56128;37.534;-122.308;2022-12-07T13:28:45;18.88;;;6.35;;
69057;SDS011;56128;37.534;-122.308;2022-12-07T13:31:13;17.85;;;5.53;;
69057;SDS011;56128;37.534;-122.308;2022-12-07T13:33:42;16.77;;;6.15;;
69057;SDS011;56128;37.534;-122.308;2022-12-07T13:36:12;18.42;;;5.75;;
69057;SDS011;56128;37.534;-122.308;2022-12-07T13:38:47;19.70;;;5.90;;
69057;SDS011;56128;37.534;-122.308;2022-12-07T13:43:46;15.32;;;5.13;;
69057;SDS011;56128;37.534;-122.308;2022-12-07T13:46:13;16.40;;;5.53;;
69057;SDS011;56128;37.534;-122.308;2022-12-07T13:48:48;17.05;;;6.55;;
69057;SDS011;56128;37.534;-122.308;2022-12-07T13:51:19;17.27;;;6.32;;
69057;SDS011;56128;37.534;-122.308;2022-12-07T13:53:49;20.95;;;7.53;;
69057;SDS011;56128;37.534;-122.308;2022-12-07T13:56:15;16.00;;;6.78;;
69057;SDS011;56128;37.534;-122.308;2022-12-07T13:58:41;20.17;;;6.95;;
69057;SDS011;56128;37.534;-122.308;2022-12-07T14:01:07;16.83;;;6.57;;
69057;SDS011;56128;37.534;-122.308;2022-12-07T14:03:34;22.35;;;7.15;;
69057;SDS011;56128;37.534;-122.308;2022-12-07T14:06:22;23.25;;;7.38;;
69057;SDS011;56128;37.534;-122.308;2022-12-07T14:08:50;23.10;;;7.03;;
69057;SDS011;56128;37.534;-122.308;2022-12-07T14:11:19;24.02;;;7.03;;
69057;SDS011;56128;37.534;-122.308;2022-12-07T14:13:56;22.70;;;6.95;;
69057;SDS011;56128;37.534;-122.308;2022-12-07T14:18:50;21.77;;;6.18;;
69057;SDS011;56128;37.534;-122.308;2022-12-07T14:21:17;24.00;;;6.95;;
69057;SDS011;56128;37.534;-122.308;2022-12-07T14:24:02;25.80;;;7.55;;
69057;SDS011;56128;37.534;-122.308;2022-12-07T14:26:28;19.38;;;6.80;;
69057;SDS011;56128;37.534;-122.308;2022-12-07T14:28:59;18.48;;;6.30;;
69057;SDS011;56128;37.534;-122.308;2022-12-07T14:31:39;17.85;;;6.68;;
69057;SDS011;56128;37.534;-122.308;2022-12-07T14:34:09;21.95;;;6.50;;
69057;SDS011;56128;37.534;-122.308;2022-12-07T14:36:36;22.15;;;6.60;;
69057;SDS011;56128;37.534;-122.308;2022-12-07T14:39:02;19.17;;;6.45;;
69057;SDS011;56128;37.534;-122.308;2022-12-07T14:41:28;26.00;;;6.95;;
69057;SDS011;56128;37.534;-122.308;2022-12-07T14:46:37;20.20;;;6.15;;
69057;SDS011;56128;37.534;-122.308;2022-12-07T14:49:03;26.10;;;7.00;;
69057;SDS011;56128;37.534;-122.308;2022-12-07T14:51:29;18.50;;;6.75;;
69057;SDS011;56128;37.534;-122.308;2022-12-07T14:53:55;22.80;;;6.45;;
69057;SDS011;56128;37.534;-122.308;2022-12-07T14:56:21;26.63;;;7.03;;
69057;SDS011;56128;37.534;-122.308;2022-12-07T14:58:46;19.40;;;6.18;;
69057;SDS011;56128;37.534;-122.308;2022-12-07T15:01:15;19.60;;;6.60;;
69057;SDS011;56128;37.534;-122.308;2022-12-07T15:03:41;18.20;;;6.40;;
69057;SDS011;56128;37.534;-122.308;2022-12-07T15:06:07;20.73;;;6.55;;
69057;SDS011;56128;37.534;-122.308;2022-12-07T15:08:33;21.95;;;5.78;;
69057;SDS011;56128;37.534;-122.308;2022-12-07T15:10:59;15.88;;;6.03;;
69057;SDS011;56128;37.534;-122.308;2022-12-07T15:13:24;19.98;;;6.40;;
69057;SDS011;56128;37.534;-122.308;2022-12-07T15:18:34;22.98;;;5.97;;
69057;SDS011;56128;37.534;-122.308;2022-12-07T15:21:00;16.15;;;5.72;;
69057;SDS011;56128;37.534;-122.308;2022-12-07T15:23:25;20.58;;;5.90;;
69057;SDS011;56128;37.534;-122.308;2022-12-07T15:25:54;15.55;;;6.30;;
69057;SDS011;56128;37.534;-122.308;2022-12-07T15:28:23;19.92;;;5.97;;
69057;SDS011;56128;37.534;-122.308;2022-12-07T15:30:48;18.33;;;6.13;;
69057;SDS011;56128;37.534;-122.308;2022-12-07T15:33:14;21.02;;;6.97;;
69057;SDS011;56128;37.534;-122.308;2022-12-07T15:35:41;21.63;;;6.55;;
69057;SDS011;56128;37.534;-122.308;2022-12-07T15:38:07;23.77;;;6.60;;
69057;SDS011;56128;37.534;-122.308;2022-12-07T15:40:33;24.35;;;6.60;;
69057;SDS011;56128;37.534;-122.308;2022-12-07T15:43:00;23.80;;;6.78;;
69057;SDS011;56128;37.534;-122.308;2022-12-07T15:45:26;23.63;;;6.97;;
69057;SDS011;56128;37.534;-122.308;2022-12-07T15:47:52;22.85;;;6.78;;
69057;SDS011;56128;37.534;-122.308;2022-12-07T15:50:19;28.02;;;7.57;;
69057;SDS011;56128;37.534;-122.308;2022-12-07T15:52:45;28.67;;;7.55;;
69057;SDS011;56128;37.534;-122.308;2022-12-07T15:55:11;26.60;;;7.85;;
69057;SDS011;56128;37.534;-122.308;2022-12-07T15:57:37;26.45;;;7.60;;
69057;SDS011;56128;37.534;-122.308;2022-12-07T16:00:06;24.00;;;7.22;;
69057;SDS011;56128;37.534;-122.308;2022-12-07T16:02:33;23.05;;;7.15;;
69057;SDS011;56128;37.534;-122.308;2022-12-07T16:04:59;24.15;;;7.63;;
69057;SDS011;56128;37.534;-122.308;2022-12-07T16:07:25;22.88;;;7.95;;